createdAt,value
2022-08-11T15:22:17.815Z,30.20
2022-08-11T15:24:44.684Z,30.20
2022-08-11T15:27:33.569Z,30.20
2022-08-11T15:30:32.277Z,30.20
2022-08-11T15:33:21.814Z,30.10
2022-08-11T15:36:07.323Z,29.90
2022-08-11T15:38:36.252Z,29.90
2022-08-11T15:41:21.650Z,29.80
2022-08-11T15:44:11.863Z,29.90
2022-08-11T15:46:38.703Z,29.70
2022-08-11T15:49:12.727Z,29.60
2022-08-11T15:51:51.906Z,29.50
2022-08-11T15:54:20.170Z,29.50
2022-08-11T15:56:49.656Z,29.50
2022-08-11T15:59:43.261Z,29.50
2022-08-11T16:02:16.306Z,29.40
2022-08-11T16:04:44.444Z,29.20
2022-08-11T16:07:12.952Z,29.20
2022-08-11T16:10:00.230Z,29.10
2022-08-11T16:12:29.431Z,29.10
2022-08-11T16:15:20.907Z,28.70
2022-08-11T16:17:50.598Z,28.60
2022-08-11T16:20:19.811Z,28.70
2022-08-11T16:22:55.304Z,28.80
2022-08-11T16:27:03.157Z,28.70
2022-08-11T16:28:15.696Z,28.80
2022-08-11T16:30:44.317Z,28.90
2022-08-11T16:33:48.646Z,28.90
2022-08-11T16:36:16.471Z,29.00
2022-08-11T16:38:43.315Z,28.90
2022-08-11T16:41:12.615Z,28.90
2022-08-11T16:44:05.144Z,29.00
2022-08-11T16:46:38.129Z,29.00
2022-08-11T16:49:09.187Z,29.10
2022-08-11T16:51:36.099Z,29.30
2022-08-11T16:54:05.545Z,29.50
2022-08-11T16:56:43.645Z,29.50
2022-08-11T16:59:20.623Z,29.50
2022-08-11T17:02:06.848Z,29.50
2022-08-11T17:05:10.077Z,29.50
2022-08-11T17:08:11.146Z,29.60
2022-08-11T17:11:23.578Z,29.90
2022-08-11T17:13:58.818Z,30.20
2022-08-11T17:16:32.410Z,30.30
2022-08-11T17:19:05.618Z,30.20
2022-08-11T17:22:02.302Z,30.30
2022-08-11T17:24:29.657Z,30.40
2022-08-11T17:26:59.154Z,30.40
2022-08-11T17:29:54.016Z,30.40
2022-08-11T17:33:07.203Z,30.50
2022-08-11T17:35:39.682Z,30.60
2022-08-11T17:38:10.010Z,30.50
2022-08-11T17:41:01.865Z,29.50
2022-08-11T17:43:47.790Z,28.40
2022-08-11T17:46:37.294Z,27.50
2022-08-11T17:49:08.706Z,26.80
2022-08-11T17:51:54.385Z,26.30
2022-08-11T17:54:40.163Z,26.10
2022-08-11T17:57:27.534Z,25.90
2022-08-11T17:59:56.940Z,25.70
2022-08-11T18:02:48.304Z,25.60
2022-08-11T18:05:17.386Z,25.50
2022-08-11T18:08:03.132Z,25.40
2022-08-11T18:10:49.963Z,25.40
2022-08-11T18:13:37.423Z,25.40
2022-08-11T18:16:23.031Z,25.40
2022-08-11T18:19:08.323Z,25.40
2022-08-11T18:22:14.247Z,25.30
2022-08-11T18:25:02.851Z,25.30
2022-08-11T18:27:50.097Z,25.30
2022-08-11T18:30:35.227Z,25.30
2022-08-11T18:33:56.778Z,25.20
2022-08-11T18:36:27.010Z,25.20
2022-08-11T18:39:12.247Z,25.10
2022-08-11T18:41:57.523Z,25.10
2022-08-11T18:44:45.125Z,25.10
2022-08-11T18:47:31.258Z,25.10
2022-08-11T18:50:21.075Z,25.00
2022-08-11T18:53:24.177Z,24.90
2022-08-11T18:56:09.442Z,24.90
2022-08-11T18:58:54.725Z,24.80
2022-08-11T19:01:44.210Z,24.70
2022-08-11T19:04:31.580Z,24.70
2022-08-11T19:07:23.411Z,24.70
2022-08-11T19:10:08.704Z,24.60
2022-08-11T19:12:56.414Z,24.50
2022-08-11T19:15:41.919Z,24.50
2022-08-11T19:18:28.540Z,24.40
2022-08-11T19:21:13.839Z,24.40
2022-08-11T19:24:02.174Z,24.40
2022-08-11T19:26:47.906Z,24.30
2022-08-11T19:30:12.361Z,24.30
2022-08-11T19:32:40.651Z,24.20
2022-08-11T19:35:26.179Z,24.20
2022-08-11T19:38:11.580Z,24.20
2022-08-11T19:40:57.999Z,24.20
2022-08-11T19:43:43.778Z,24.20
2022-08-11T19:46:28.995Z,24.20
2022-08-11T19:49:15.154Z,24.20
2022-08-11T19:52:00.501Z,24.10
2022-08-11T19:54:47.290Z,24.10
2022-08-11T19:57:37.096Z,24.10
2022-08-11T20:00:25.706Z,24.10
2022-08-11T20:03:17.029Z,24.10
2022-08-11T20:06:02.637Z,24.00
2022-08-11T20:08:48.161Z,24.10
2022-08-11T20:11:33.439Z,24.10
2022-08-11T20:14:18.653Z,24.00
2022-08-11T20:17:03.985Z,24.00
2022-08-11T20:19:56.495Z,23.90
2022-08-11T20:22:43.679Z,23.90
2022-08-11T20:25:29.139Z,23.90
2022-08-11T20:28:14.570Z,23.80
2022-08-11T20:31:02.389Z,23.80
2022-08-11T20:33:48.726Z,23.80
2022-08-11T20:36:34.069Z,23.80
2022-08-11T20:39:19.917Z,23.80
2022-08-11T20:42:06.183Z,23.80
2022-08-11T20:44:52.419Z,23.90
2022-08-11T20:47:59.190Z,23.80
2022-08-11T20:50:45.913Z,23.90
2022-08-11T20:53:35.769Z,23.90
2022-08-11T20:56:22.275Z,23.90
2022-08-11T20:59:18.875Z,23.90
2022-08-11T21:02:09.624Z,23.90
2022-08-11T21:04:57.695Z,23.90
2022-08-11T21:07:57.275Z,23.90
2022-08-11T21:10:52.260Z,23.90
2022-08-11T21:13:39.524Z,23.90
2022-08-11T21:16:27.308Z,23.90
2022-08-11T21:19:15.945Z,23.90
2022-08-11T21:22:01.162Z,23.90
2022-08-11T21:24:49.071Z,23.80
2022-08-11T21:27:35.118Z,23.90
2022-08-11T21:30:20.443Z,23.80
2022-08-11T21:33:05.670Z,23.80
2022-08-11T21:35:50.827Z,23.70
2022-08-11T21:38:35.991Z,23.70
2022-08-11T21:41:21.182Z,23.70
2022-08-11T21:44:08.600Z,23.70
2022-08-11T21:46:54.912Z,23.70
2022-08-11T21:49:41.005Z,23.70
2022-08-11T21:52:26.086Z,23.60
2022-08-11T21:55:11.299Z,23.60
2022-08-11T21:57:56.253Z,23.50
2022-08-11T22:00:41.614Z,23.50
2022-08-11T22:03:27.096Z,23.50
2022-08-11T22:06:12.798Z,23.50
2022-08-11T22:08:57.930Z,23.40
2022-08-11T22:11:43.101Z,23.40
2022-08-11T22:14:28.496Z,23.40
2022-08-11T22:17:13.757Z,23.40
2022-08-11T22:20:00.956Z,23.30
2022-08-11T22:22:52.059Z,23.40
2022-08-11T22:25:44.259Z,23.30
2022-08-11T22:28:40.334Z,23.30
2022-08-11T22:31:26.222Z,23.30
2022-08-11T22:34:11.290Z,23.30
2022-08-11T22:36:56.420Z,23.30
2022-08-11T22:39:42.211Z,23.20
2022-08-11T22:42:33.076Z,23.20
2022-08-11T22:45:20.030Z,23.10
2022-08-11T22:48:06.280Z,23.10
2022-08-11T22:50:51.974Z,23.10
2022-08-11T22:53:57.950Z,23.00
2022-08-11T22:56:43.063Z,23.00
2022-08-11T22:59:28.290Z,22.90
2022-08-11T23:02:13.472Z,22.90
2022-08-11T23:04:59.171Z,22.90
2022-08-11T23:07:50.284Z,22.90
2022-08-11T23:10:38.678Z,22.90
2022-08-11T23:13:24.818Z,22.80
2022-08-11T23:16:10.627Z,22.90
2022-08-11T23:18:56.707Z,22.80
2022-08-11T23:21:42.145Z,22.80
2022-08-11T23:24:27.839Z,22.70
2022-08-11T23:27:13.143Z,22.70
2022-08-11T23:29:58.276Z,22.70
2022-08-11T23:32:44.389Z,22.60
2022-08-11T23:35:38.916Z,22.60
2022-08-11T23:38:25.935Z,22.60
2022-08-11T23:41:10.997Z,22.50
2022-08-11T23:43:56.328Z,22.60
2022-08-11T23:46:42.199Z,22.50
2022-08-11T23:49:27.341Z,22.60
2022-08-11T23:52:12.598Z,22.50
2022-08-11T23:54:57.984Z,22.50
2022-08-11T23:57:47.895Z,22.50
